sensor_id;sensor_type;location;lat;lon;timestamp;P1;durP1;ratioP1;P2;durP2;ratioP2
52072;SDS011;38074;51.232;6.826;2022-08-01T00:04:11;0.40;;;0.30;;
52072;SDS011;38074;51.232;6.826;2022-08-01T00:11:26;0.67;;;0.57;;
52072;SDS011;38074;51.232;6.826;2022-08-01T00:18:42;0.87;;;0.50;;
52072;SDS011;38074;51.232;6.826;2022-08-01T00:25:57;0.60;;;0.40;;
52072;SDS011;38074;51.232;6.826;2022-08-01T00:33:13;0.40;;;0.40;;
52072;SDS011;38074;51.232;6.826;2022-08-01T00:40:29;0.60;;;0.30;;
52072;SDS011;38074;51.232;6.826;2022-08-01T00:47:44;0.50;;;0.50;;
52072;SDS011;38074;51.232;6.826;2022-08-01T00:55:00;0.40;;;0.30;;
52072;SDS011;38074;51.232;6.826;2022-08-01T01:02:16;0.50;;;0.40;;
52072;SDS011;38074;51.232;6.826;2022-08-01T01:16:57;0.47;;;0.38;;
52072;SDS011;38074;51.232;6.826;2022-08-01T01:31:59;0.50;;;0.40;;
52072;SDS011;38074;51.232;6.826;2022-08-01T01:39:20;0.50;;;0.30;;
52072;SDS011;38074;51.232;6.826;2022-08-01T01:46:39;0.40;;;0.40;;
52072;SDS011;38074;51.232;6.826;2022-08-01T02:01:12;0.43;;;0.37;;
52072;SDS011;38074;51.232;6.826;2022-08-01T02:08:29;0.50;;;0.40;;
52072;SDS011;38074;51.232;6.826;2022-08-01T02:15:45;0.50;;;0.40;;
52072;SDS011;38074;51.232;6.826;2022-08-01T02:23:04;0.70;;;0.30;;
52072;SDS011;38074;51.232;6.826;2022-08-01T02:30:22;0.35;;;0.30;;
52072;SDS011;38074;51.232;6.826;2022-08-01T02:37:40;0.50;;;0.30;;
52072;SDS011;38074;51.232;6.826;2022-08-01T02:44:57;0.60;;;0.40;;
52072;SDS011;38074;51.232;6.826;2022-08-01T02:52:14;0.40;;;0.30;;
52072;SDS011;38074;51.232;6.826;2022-08-01T02:59:31;0.50;;;0.40;;
52072;SDS011;38074;51.232;6.826;2022-08-01T03:06:48;0.40;;;0.40;;
52072;SDS011;38074;51.232;6.826;2022-08-01T03:14:07;0.50;;;0.40;;
52072;SDS011;38074;51.232;6.826;2022-08-01T03:21:24;0.57;;;0.50;;
52072;SDS011;38074;51.232;6.826;2022-08-01T03:28:42;0.60;;;0.32;;
52072;SDS011;38074;51.232;6.826;2022-08-01T03:36:00;0.50;;;0.40;;
52072;SDS011;38074;51.232;6.826;2022-08-01T03:43:32;0.82;;;0.45;;
52072;SDS011;38074;51.232;6.826;2022-08-01T03:50:52;0.30;;;0.30;;
52072;SDS011;38074;51.232;6.826;2022-08-01T03:58:09;0.50;;;0.40;;
52072;SDS011;38074;51.232;6.826;2022-08-01T04:05:25;0.60;;;0.47;;
52072;SDS011;38074;51.232;6.826;2022-08-01T04:12:41;0.43;;;0.40;;
52072;SDS011;38074;51.232;6.826;2022-08-01T04:19:56;0.60;;;0.40;;
52072;SDS011;38074;51.232;6.826;2022-08-01T04:27:13;0.90;;;0.50;;
52072;SDS011;38074;51.232;6.826;2022-08-01T04:34:32;0.60;;;0.50;;
52072;SDS011;38074;51.232;6.826;2022-08-01T04:49:08;0.73;;;0.60;;
52072;SDS011;38074;51.232;6.826;2022-08-01T04:56:26;0.88;;;0.60;;
52072;SDS011;38074;51.232;6.826;2022-08-01T05:03:42;0.87;;;0.57;;
52072;SDS011;38074;51.232;6.826;2022-08-01T05:10:57;0.80;;;0.60;;
52072;SDS011;38074;51.232;6.826;2022-08-01T05:18:13;0.87;;;0.60;;
52072;SDS011;38074;51.232;6.826;2022-08-01T05:25:29;0.70;;;0.50;;
52072;SDS011;38074;51.232;6.826;2022-08-01T05:32:44;0.57;;;0.50;;
52072;SDS011;38074;51.232;6.826;2022-08-01T05:40:00;0.90;;;0.60;;
52072;SDS011;38074;51.232;6.826;2022-08-01T05:47:16;0.80;;;0.57;;
52072;SDS011;38074;51.232;6.826;2022-08-01T05:54:32;0.82;;;0.70;;
52072;SDS011;38074;51.232;6.826;2022-08-01T06:01:47;0.73;;;0.60;;
52072;SDS011;38074;51.232;6.826;2022-08-01T06:09:03;0.80;;;0.60;;
52072;SDS011;38074;51.232;6.826;2022-08-01T06:16:18;0.80;;;0.60;;
52072;SDS011;38074;51.232;6.826;2022-08-01T06:23:34;0.77;;;0.60;;
52072;SDS011;38074;51.232;6.826;2022-08-01T06:30:49;1.00;;;0.77;;
52072;SDS011;38074;51.232;6.826;2022-08-01T06:38:05;0.97;;;0.70;;
52072;SDS011;38074;51.232;6.826;2022-08-01T06:45:21;1.23;;;0.77;;
52072;SDS011;38074;51.232;6.826;2022-08-01T06:52:37;0.90;;;0.75;;
52072;SDS011;38074;51.232;6.826;2022-08-01T06:59:53;0.77;;;0.70;;
52072;SDS011;38074;51.232;6.826;2022-08-01T07:07:09;0.80;;;0.65;;
52072;SDS011;38074;51.232;6.826;2022-08-01T07:14:24;1.17;;;0.93;;
52072;SDS011;38074;51.232;6.826;2022-08-01T07:21:40;1.10;;;0.83;;
52072;SDS011;38074;51.232;6.826;2022-08-01T07:28:56;1.20;;;0.83;;
52072;SDS011;38074;51.232;6.826;2022-08-01T07:36:12;1.50;;;0.80;;
52072;SDS011;38074;51.232;6.826;2022-08-01T07:43:27;0.77;;;0.53;;
52072;SDS011;38074;51.232;6.826;2022-08-01T07:50:43;0.77;;;0.60;;
52072;SDS011;38074;51.232;6.826;2022-08-01T07:57:58;0.80;;;0.67;;
52072;SDS011;38074;51.232;6.826;2022-08-01T08:05:14;0.70;;;0.67;;
52072;SDS011;38074;51.232;6.826;2022-08-01T08:12:29;0.97;;;0.73;;
52072;SDS011;38074;51.232;6.826;2022-08-01T08:19:45;0.80;;;0.70;;
52072;SDS011;38074;51.232;6.826;2022-08-01T08:27:01;0.80;;;0.67;;
52072;SDS011;38074;51.232;6.826;2022-08-01T08:34:17;0.85;;;0.70;;
52072;SDS011;38074;51.232;6.826;2022-08-01T08:41:33;1.10;;;0.80;;
52072;SDS011;38074;51.232;6.826;2022-08-01T08:48:49;0.65;;;0.52;;
52072;SDS011;38074;51.232;6.826;2022-08-01T08:56:06;0.60;;;0.40;;
52072;SDS011;38074;51.232;6.826;2022-08-01T09:03:23;0.60;;;0.50;;
52072;SDS011;38074;51.232;6.826;2022-08-01T09:10:39;1.00;;;0.70;;
52072;SDS011;38074;51.232;6.826;2022-08-01T09:17:54;0.80;;;0.60;;
52072;SDS011;38074;51.232;6.826;2022-08-01T09:25:10;0.70;;;0.50;;
52072;SDS011;38074;51.232;6.826;2022-08-01T09:32:25;0.80;;;0.57;;
52072;SDS011;38074;51.232;6.826;2022-08-01T09:39:41;0.90;;;0.63;;
52072;SDS011;38074;51.232;6.826;2022-08-01T09:46:58;0.80;;;0.50;;
52072;SDS011;38074;51.232;6.826;2022-08-01T09:54:13;0.70;;;0.70;;
52072;SDS011;38074;51.232;6.826;2022-08-01T10:01:47;0.80;;;0.57;;
52072;SDS011;38074;51.232;6.826;2022-08-01T10:09:03;0.80;;;0.60;;
52072;SDS011;38074;51.232;6.826;2022-08-01T10:16:19;0.77;;;0.50;;
52072;SDS011;38074;51.232;6.826;2022-08-01T10:23:36;0.60;;;0.40;;
52072;SDS011;38074;51.232;6.826;2022-08-01T10:30:53;0.80;;;0.50;;
52072;SDS011;38074;51.232;6.826;2022-08-01T10:38:09;0.77;;;0.60;;
52072;SDS011;38074;51.232;6.826;2022-08-01T10:45:25;0.80;;;0.60;;
52072;SDS011;38074;51.232;6.826;2022-08-01T10:52:41;0.80;;;0.70;;
52072;SDS011;38074;51.232;6.826;2022-08-01T10:59:57;0.60;;;0.50;;
52072;SDS011;38074;51.232;6.826;2022-08-01T11:07:16;0.50;;;0.40;;
52072;SDS011;38074;51.232;6.826;2022-08-01T11:22:12;0.45;;;0.35;;
52072;SDS011;38074;51.232;6.826;2022-08-01T11:29:28;0.60;;;0.50;;
52072;SDS011;38074;51.232;6.826;2022-08-01T11:36:43;0.70;;;0.57;;
52072;SDS011;38074;51.232;6.826;2022-08-01T11:51:34;0.52;;;0.40;;
52072;SDS011;38074;51.232;6.826;2022-08-01T11:58:50;0.77;;;0.50;;
52072;SDS011;38074;51.232;6.826;2022-08-01T12:06:14;0.70;;;0.40;;
52072;SDS011;38074;51.232;6.826;2022-08-01T12:13:42;0.60;;;0.40;;
52072;SDS011;38074;51.232;6.826;2022-08-01T12:21:02;0.77;;;0.52;;
52072;SDS011;38074;51.232;6.826;2022-08-01T12:28:19;0.57;;;0.35;;
52072;SDS011;38074;51.232;6.826;2022-08-01T12:35:35;0.50;;;0.33;;
52072;SDS011;38074;51.232;6.826;2022-08-01T12:42:53;0.45;;;0.32;;
52072;SDS011;38074;51.232;6.826;2022-08-01T12:50:12;0.52;;;0.30;;
52072;SDS011;38074;51.232;6.826;2022-08-01T12:57:33;0.43;;;0.30;;
52072;SDS011;38074;51.232;6.826;2022-08-01T13:04:50;0.55;;;0.40;;
52072;SDS011;38074;51.232;6.826;2022-08-01T13:12:09;0.40;;;0.30;;
52072;SDS011;38074;51.232;6.826;2022-08-01T13:19:43;0.40;;;0.32;;
52072;SDS011;38074;51.232;6.826;2022-08-01T13:27:00;0.50;;;0.30;;
52072;SDS011;38074;51.232;6.826;2022-08-01T13:34:18;0.30;;;0.30;;
52072;SDS011;38074;51.232;6.826;2022-08-01T13:41:45;0.40;;;0.30;;
52072;SDS011;38074;51.232;6.826;2022-08-01T13:49:02;0.70;;;0.40;;
52072;SDS011;38074;51.232;6.826;2022-08-01T13:56:17;0.40;;;0.30;;
52072;SDS011;38074;51.232;6.826;2022-08-01T14:03:33;0.33;;;0.20;;
52072;SDS011;38074;51.232;6.826;2022-08-01T14:10:48;0.50;;;0.33;;
52072;SDS011;38074;51.232;6.826;2022-08-01T14:18:04;0.50;;;0.40;;
52072;SDS011;38074;51.232;6.826;2022-08-01T14:32:36;0.40;;;0.30;;
52072;SDS011;38074;51.232;6.826;2022-08-01T14:39:52;0.63;;;0.40;;
52072;SDS011;38074;51.232;6.826;2022-08-01T14:47:07;0.53;;;0.30;;
52072;SDS011;38074;51.232;6.826;2022-08-01T14:54:23;0.37;;;0.23;;
52072;SDS011;38074;51.232;6.826;2022-08-01T15:01:38;0.30;;;0.30;;
52072;SDS011;38074;51.232;6.826;2022-08-01T15:08:54;0.80;;;0.50;;
52072;SDS011;38074;51.232;6.826;2022-08-01T15:16:10;0.43;;;0.33;;
52072;SDS011;38074;51.232;6.826;2022-08-01T15:23:25;0.57;;;0.30;;
52072;SDS011;38074;51.232;6.826;2022-08-01T15:30:41;0.47;;;0.30;;
52072;SDS011;38074;51.232;6.826;2022-08-01T15:37:57;0.30;;;0.20;;
52072;SDS011;38074;51.232;6.826;2022-08-01T15:45:12;0.60;;;0.40;;
52072;SDS011;38074;51.232;6.826;2022-08-01T15:52:32;0.43;;;0.22;;
52072;SDS011;38074;51.232;6.826;2022-08-01T15:59:48;0.50;;;0.30;;
52072;SDS011;38074;51.232;6.826;2022-08-01T16:07:03;0.53;;;0.40;;
52072;SDS011;38074;51.232;6.826;2022-08-01T16:14:20;0.60;;;0.40;;
52072;SDS011;38074;51.232;6.826;2022-08-01T16:21:35;0.63;;;0.30;;
52072;SDS011;38074;51.232;6.826;2022-08-01T16:28:51;0.60;;;0.37;;
52072;SDS011;38074;51.232;6.826;2022-08-01T16:36:07;0.47;;;0.20;;
52072;SDS011;38074;51.232;6.826;2022-08-01T16:43:23;0.30;;;0.23;;
52072;SDS011;38074;51.232;6.826;2022-08-01T16:50:38;0.40;;;0.30;;
52072;SDS011;38074;51.232;6.826;2022-08-01T16:57:54;0.40;;;0.27;;
52072;SDS011;38074;51.232;6.826;2022-08-01T17:12:27;0.30;;;0.20;;
52072;SDS011;38074;51.232;6.826;2022-08-01T17:19:42;0.47;;;0.30;;
52072;SDS011;38074;51.232;6.826;2022-08-01T17:26:58;0.50;;;0.40;;
52072;SDS011;38074;51.232;6.826;2022-08-01T17:34:14;0.30;;;0.30;;
52072;SDS011;38074;51.232;6.826;2022-08-01T17:41:29;0.33;;;0.23;;
52072;SDS011;38074;51.232;6.826;2022-08-01T17:48:45;0.10;;;0.10;;
52072;SDS011;38074;51.232;6.826;2022-08-01T17:56:00;0.50;;;0.30;;
52072;SDS011;38074;51.232;6.826;2022-08-01T18:03:19;0.35;;;0.20;;
52072;SDS011;38074;51.232;6.826;2022-08-01T18:10:34;0.50;;;0.30;;
52072;SDS011;38074;51.232;6.826;2022-08-01T18:17:50;0.20;;;0.20;;
52072;SDS011;38074;51.232;6.826;2022-08-01T18:25:05;0.30;;;0.20;;
52072;SDS011;38074;51.232;6.826;2022-08-01T18:32:22;0.40;;;0.20;;
52072;SDS011;38074;51.232;6.826;2022-08-01T18:39:38;0.20;;;0.20;;
52072;SDS011;38074;51.232;6.826;2022-08-01T18:46:53;0.60;;;0.30;;
52072;SDS011;38074;51.232;6.826;2022-08-01T18:54:09;0.20;;;0.20;;
52072;SDS011;38074;51.232;6.826;2022-08-01T19:01:25;0.40;;;0.30;;
52072;SDS011;38074;51.232;6.826;2022-08-01T19:08:41;0.50;;;0.30;;
52072;SDS011;38074;51.232;6.826;2022-08-01T19:15:58;0.35;;;0.20;;
52072;SDS011;38074;51.232;6.826;2022-08-01T19:23:14;0.30;;;0.20;;
52072;SDS011;38074;51.232;6.826;2022-08-01T19:30:48;0.57;;;0.30;;
52072;SDS011;38074;51.232;6.826;2022-08-01T19:38:05;0.55;;;0.30;;
52072;SDS011;38074;51.232;6.826;2022-08-01T19:45:21;4.33;;;0.90;;
52072;SDS011;38074;51.232;6.826;2022-08-01T19:52:37;4.13;;;0.90;;
52072;SDS011;38074;51.232;6.826;2022-08-01T19:59:54;2.15;;;0.70;;
52072;SDS011;38074;51.232;6.826;2022-08-01T20:07:12;2.22;;;0.98;;
52072;SDS011;38074;51.232;6.826;2022-08-01T20:21:45;1.98;;;0.80;;
52072;SDS011;38074;51.232;6.826;2022-08-01T20:29:02;2.38;;;1.00;;
52072;SDS011;38074;51.232;6.826;2022-08-01T20:36:18;3.10;;;1.00;;
52072;SDS011;38074;51.232;6.826;2022-08-01T20:43:34;1.53;;;0.70;;
52072;SDS011;38074;51.232;6.826;2022-08-01T20:50:50;2.35;;;0.70;;
52072;SDS011;38074;51.232;6.826;2022-08-01T20:58:26;2.05;;;0.60;;
52072;SDS011;38074;51.232;6.826;2022-08-01T21:05:53;3.22;;;1.20;;
52072;SDS011;38074;51.232;6.826;2022-08-01T21:13:18;2.83;;;1.10;;
52072;SDS011;38074;51.232;6.826;2022-08-01T21:20:40;1.88;;;0.70;;
52072;SDS011;38074;51.232;6.826;2022-08-01T21:27:57;3.00;;;0.88;;
52072;SDS011;38074;51.232;6.826;2022-08-01T21:35:14;1.27;;;0.80;;
52072;SDS011;38074;51.232;6.826;2022-08-01T21:42:32;2.40;;;0.98;;
52072;SDS011;38074;51.232;6.826;2022-08-01T21:49:50;3.50;;;1.10;;
52072;SDS011;38074;51.232;6.826;2022-08-01T22:11:59;3.83;;;1.38;;
52072;SDS011;38074;51.232;6.826;2022-08-01T22:19:19;2.78;;;1.38;;
52072;SDS011;38074;51.232;6.826;2022-08-01T22:26:36;2.80;;;1.30;;
52072;SDS011;38074;51.232;6.826;2022-08-01T22:33:52;2.88;;;1.10;;
52072;SDS011;38074;51.232;6.826;2022-08-01T22:41:08;4.20;;;1.43;;
52072;SDS011;38074;51.232;6.826;2022-08-01T22:48:42;1.88;;;1.13;;
52072;SDS011;38074;51.232;6.826;2022-08-01T22:56:01;2.20;;;1.30;;
52072;SDS011;38074;51.232;6.826;2022-08-01T23:03:25;2.03;;;1.15;;
52072;SDS011;38074;51.232;6.826;2022-08-01T23:10:43;3.03;;;1.05;;
52072;SDS011;38074;51.232;6.826;2022-08-01T23:17:59;4.10;;;1.10;;
52072;SDS011;38074;51.232;6.826;2022-08-01T23:25:18;2.67;;;0.90;;
52072;SDS011;38074;51.232;6.826;2022-08-01T23:32:34;3.83;;;1.00;;
52072;SDS011;38074;51.232;6.826;2022-08-01T23:39:50;2.30;;;1.30;;
52072;SDS011;38074;51.232;6.826;2022-08-01T23:47:05;3.20;;;1.30;;
